^^
Saratoga-Weather Station Historical Data
Daily Summary for July 22, 2021 Units:  Both    English   Metric
Daily Weekly Monthly Yearly Custom
  High: Low: Average:
Temperature: 68.2 °F /  20.1 °C 46.6 °F /  8.1 °C 56.5 °F /  13.6 °C
Dew Point: 53.6 °F /  12 °C 44.1 °F /  6.7 °C 47.8 °F /  8.8 °C
Humidity: 92% 53% 75%
Wind Speed: 9mph /  14.5km/h - 0.8mph /  1.3km/h
Wind Gust: 10mph /  16.1km/h - -
Wind- - ESE
Pressure: 30.4 in /  1029.5 hPa 30.3 in /  1024.7 hPa -
Precipitation: 0 in /  0.0 mm    
Historical Graphs
 
 
Tabular Data for July 22, 2021
Time Temperature Dew Point Pressure Wind Wind Speed Wind Gust Humidity Rainfall Rate (Hourly) solar
00:00 51.1 °F /  10.6 °C 46.4 °F /  8 °C 30.4in /  1029.5hPa Calm     84% 0in /  0.0mm 0 W/m2
00:05 51.1 °F /  10.6 °C 46.4 °F /  8 °C 30.4in /  1029.5hPa SSW 0.9mph /  1.4km/h 1mph /  1.6km/h 84% 0in /  0.0mm 0 W/m2
00:10 50.9 °F /  10.5 °C 46.2 °F /  7.9 °C 30.4in /  1029.5hPa SSW 0.9mph /  1.4km/h 2mph /  3.2km/h 84% 0in /  0.0mm 0 W/m2
00:15 50.7 °F /  10.4 °C 46 °F /  7.8 °C 30.4in /  1029.5hPa Calm   1mph /  1.6km/h 84% 0in /  0.0mm 0 W/m2
00:20 50.7 °F /  10.4 °C 46 °F /  7.8 °C 30.4in /  1029.5hPa Calm   2mph /  3.2km/h 84% 0in /  0.0mm 0 W/m2
00:25 50.9 °F /  10.5 °C 46.2 °F /  7.9 °C 30.4in /  1029.5hPa SSW 0.9mph /  1.4km/h 2mph /  3.2km/h 84% 0in /  0.0mm 0 W/m2
00:30 50.9 °F /  10.5 °C 46.2 °F /  7.9 °C 30.4in /  1029.5hPa Calm     84% 0in /  0.0mm 0 W/m2
00:35 51.1 °F /  10.6 °C 46.4 °F /  8 °C 30.4in /  1029.5hPa Calm   2mph /  3.2km/h 84% 0in /  0.0mm 0 W/m2
00:40 51.1 °F /  10.6 °C 46.4 °F /  8 °C 30.4in /  1029.5hPa Calm     84% 0in /  0.0mm 0 W/m2
00:45 50.9 °F /  10.5 °C 46.2 °F /  7.9 °C 30.4in /  1029.1hPa SSW 0.9mph /  1.4km/h 1mph /  1.6km/h 84% 0in /  0.0mm 0 W/m2
00:50 50.7 °F /  10.4 °C 46 °F /  7.8 °C 30.4in /  1029.1hPa Calm     84% 0in /  0.0mm 0 W/m2
00:55 50.5 °F /  10.3 °C 45.9 °F /  7.7 °C 30.4in /  1029.1hPa SSW 0.9mph /  1.4km/h 1mph /  1.6km/h 84% 0in /  0.0mm 0 W/m2
01:00 50.5 °F /  10.3 °C 45.9 °F /  7.7 °C 30.4in /  1029.1hPa Calm   1mph /  1.6km/h 84% 0in /  0.0mm 0 W/m2
01:06 50.4 °F /  10.2 °C 46 °F /  7.8 °C 30.4in /  1029.1hPa SSW 2mph /  3.2km/h 2mph /  3.2km/h 85% 0in /  0.0mm 0 W/m2
01:11 50.2 °F /  10.1 °C 45.9 °F /  7.7 °C 30.4in /  1029.1hPa SSW 0.9mph /  1.4km/h 2mph /  3.2km/h 85% 0in /  0.0mm 0 W/m2
01:16 50.2 °F /  10.1 °C 45.9 °F /  7.7 °C 30.4in /  1029.1hPa Calm   1mph /  1.6km/h 85% 0in /  0.0mm 0 W/m2
01:21 49.8 °F /  9.9 °C 45.9 °F /  7.7 °C 30.4in /  1029.1hPa SSW 2mph /  3.2km/h 2mph /  3.2km/h 86% 0in /  0.0mm 0 W/m2
01:26 49.8 °F /  9.9 °C 45.9 °F /  7.7 °C 30.4in /  1029.1hPa Calm   1mph /  1.6km/h 86% 0in /  0.0mm 0 W/m2
01:31 49.6 °F /  9.8 °C 45.7 °F /  7.6 °C 30.4in /  1029.1hPa Calm     86% 0in /  0.0mm 0 W/m2
01:48 49.5 °F /  9.7 °C 45.7 °F /  7.6 °C 30.4in /  1028.8hPa Calm     87% 0in /  0.0mm 0 W/m2
01:53 49.5 °F /  9.7 °C 45.7 °F /  7.6 °C 30.4in /  1028.8hPa Calm     87% 0in /  0.0mm 0 W/m2
01:58 49.3 °F /  9.6 °C 45.5 °F /  7.5 °C 30.4in /  1028.8hPa Calm     87% 0in /  0.0mm 0 W/m2
02:03 49.3 °F /  9.6 °C 45.5 °F /  7.5 °C 30.4in /  1028.5hPa Calm     87% 0in /  0.0mm 0 W/m2
02:08 48.9 °F /  9.4 °C 45.1 °F /  7.3 °C 30.4in /  1028.8hPa Calm     87% 0in /  0.0mm 0 W/m2
02:13 48.9 °F /  9.4 °C 45.1 °F /  7.3 °C 30.4in /  1028.8hPa Calm     87% 0in /  0.0mm 0 W/m2
02:30 48.9 °F /  9.4 °C 45.5 °F /  7.5 °C 30.4in /  1028.8hPa Calm   1mph /  1.6km/h 88% 0in /  0.0mm 0 W/m2
02:35 48.9 °F /  9.4 °C 45.5 °F /  7.5 °C 30.4in /  1028.8hPa Calm     88% 0in /  0.0mm 0 W/m2
02:40 48.7 °F /  9.3 °C 45.3 °F /  7.4 °C 30.4in /  1028.8hPa Calm   1mph /  1.6km/h 88% 0in /  0.0mm 0 W/m2
02:45 48.7 °F /  9.3 °C 45.3 °F /  7.4 °C 30.4in /  1028.5hPa Calm   1mph /  1.6km/h 88% 0in /  0.0mm 0 W/m2
02:50 48.7 °F /  9.3 °C 45.3 °F /  7.4 °C 30.4in /  1028.5hPa Calm   1mph /  1.6km/h 88% 0in /  0.0mm 0 W/m2
02:55 48.7 °F /  9.3 °C 45.3 °F /  7.4 °C 30.4in /  1028.5hPa Calm     88% 0in /  0.0mm 0 W/m2
03:00 48.6 °F /  9.2 °C 45.1 °F /  7.3 °C 30.4in /  1028.5hPa Calm     88% 0in /  0.0mm 0 W/m2
03:05 48.6 °F /  9.2 °C 45.1 °F /  7.3 °C 30.4in /  1028.5hPa Calm   1mph /  1.6km/h 88% 0in /  0.0mm 0 W/m2
03:10 48.4 °F /  9.1 °C 45 °F /  7.2 °C 30.4in /  1028.8hPa Calm     88% 0in /  0.0mm 0 W/m2
03:15 48.4 °F /  9.1 °C 45.3 °F /  7.4 °C 30.4in /  1028.8hPa Calm   1mph /  1.6km/h 89% 0in /  0.0mm 0 W/m2
03:20 48.2 °F /  9 °C 45.1 °F /  7.3 °C 30.4in /  1028.8hPa Calm     89% 0in /  0.0mm 0 W/m2
03:25 48 °F /  8.9 °C 45 °F /  7.2 °C 30.4in /  1028.8hPa West 0.9mph /  1.4km/h 2mph /  3.2km/h 89% 0in /  0.0mm 0 W/m2
03:30 48 °F /  8.9 °C 45 °F /  7.2 °C 30.4in /  1028.8hPa Calm   1mph /  1.6km/h 89% 0in /  0.0mm 0 W/m2
03:35 48 °F /  8.9 °C 45.1 °F /  7.3 °C 30.4in /  1028.5hPa SW 0.9mph /  1.4km/h 2mph /  3.2km/h 90% 0in /  0.0mm 0 W/m2
03:40 48 °F /  8.9 °C 45 °F /  7.2 °C 30.4in /  1028.5hPa Calm     89% 0in /  0.0mm 0 W/m2
03:45 48.2 °F /  9 °C 45.1 °F /  7.3 °C 30.4in /  1028.5hPa SW 0.9mph /  1.4km/h 2mph /  3.2km/h 89% 0in /  0.0mm 0 W/m2
04:02 48 °F /  8.9 °C 45 °F /  7.2 °C 30.4in /  1028.5hPa Calm     89% 0in /  0.0mm 0 W/m2
04:07 47.8 °F /  8.8 °C 44.8 °F /  7.1 °C 30.4in /  1028.5hPa Calm     89% 0in /  0.0mm 0 W/m2
04:12 47.8 °F /  8.8 °C 44.8 °F /  7.1 °C 30.4in /  1028.5hPa Calm     89% 0in /  0.0mm 0 W/m2
04:17 47.7 °F /  8.7 °C 44.6 °F /  7 °C 30.4in /  1028.5hPa Calm     89% 0in /  0.0mm 0 W/m2
04:22 47.7 °F /  8.7 °C 45 °F /  7.2 °C 30.4in /  1028.5hPa Calm     90% 0in /  0.0mm 0 W/m2
04:27 47.5 °F /  8.6 °C 44.8 °F /  7.1 °C 30.4in /  1028.5hPa Calm     90% 0in /  0.0mm 0 W/m2
04:32 47.3 °F /  8.5 °C 44.6 °F /  7 °C 30.4in /  1028.5hPa Calm   1mph /  1.6km/h 90% 0in /  0.0mm 0 W/m2
04:37 47.3 °F /  8.5 °C 44.6 °F /  7 °C 30.4in /  1028.5hPa Calm   1mph /  1.6km/h 90% 0in /  0.0mm 0 W/m2
04:42 47.1 °F /  8.4 °C 44.4 °F /  6.9 °C 30.4in /  1028.5hPa Calm     90% 0in /  0.0mm 0 W/m2
04:47 47.1 °F /  8.4 °C 44.6 °F /  7 °C 30.4in /  1028.5hPa Calm     91% 0in /  0.0mm 0 W/m2
04:52 46.9 °F /  8.3 °C 44.4 °F /  6.9 °C 30.4in /  1028.5hPa Calm     91% 0in /  0.0mm 0 W/m2
04:57 46.9 °F /  8.3 °C 44.4 °F /  6.9 °C 30.4in /  1028.5hPa Calm     91% 0in /  0.0mm 0 W/m2
05:02 46.9 °F /  8.3 °C 44.4 °F /  6.9 °C 30.4in /  1028.5hPa Calm     91% 0in /  0.0mm 0 W/m2
05:07 46.8 °F /  8.2 °C 44.2 °F /  6.8 °C 30.4in /  1028.5hPa Calm     91% 0in /  0.0mm 0 W/m2
05:12 46.8 °F /  8.2 °C 44.2 °F /  6.8 °C 30.4in /  1028.5hPa Calm     91% 0in /  0.0mm 0 W/m2
05:17 46.8 °F /  8.2 °C 44.2 °F /  6.8 °C 30.4in /  1028.5hPa Calm     91% 0in /  0.0mm 0 W/m2
05:22 46.8 °F /  8.2 °C 44.2 °F /  6.8 °C 30.4in /  1028.5hPa Calm     91% 0in /  0.0mm 0 W/m2
05:27 46.6 °F /  8.1 °C 44.1 °F /  6.7 °C 30.4in /  1028.5hPa Calm     91% 0in /  0.0mm 0 W/m2
05:32 46.6 °F /  8.1 °C 44.1 °F /  6.7 °C 30.4in /  1028.5hPa Calm     91% 0in /  0.0mm 0 W/m2
05:37 46.6 °F /  8.1 °C 44.1 °F /  6.7 °C 30.4in /  1028.5hPa Calm     91% 0in /  0.0mm 0 W/m2
05:42 46.6 °F /  8.1 °C 44.4 °F /  6.9 °C 30.4in /  1028.5hPa Calm     92% 0in /  0.0mm 0 W/m2
05:47 46.6 °F /  8.1 °C 44.4 °F /  6.9 °C 30.4in /  1028.5hPa Calm     92% 0in /  0.0mm 0 W/m2
05:52 46.6 °F /  8.1 °C 44.4 °F /  6.9 °C 30.4in /  1028.5hPa Calm   3mph /  4.8km/h 92% 0in /  0.0mm 0 W/m2
05:57 46.8 °F /  8.2 °C 44.6 °F /  7 °C 30.4in /  1028.5hPa Calm     92% 0in /  0.0mm 0 W/m2
06:14 46.8 °F /  8.2 °C 44.6 °F /  7 °C 30.4in /  1028.5hPa Calm     92% 0in /  0.0mm 0 W/m2
06:19 46.8 °F /  8.2 °C 44.6 °F /  7 °C 30.4in /  1028.5hPa Calm   1mph /  1.6km/h 92% 0in /  0.0mm 0 W/m2
06:24 46.8 °F /  8.2 °C 44.6 °F /  7 °C 30.4in /  1028.5hPa Calm     92% 0in /  0.0mm 0 W/m2
06:29 46.9 °F /  8.3 °C 44.8 °F /  7.1 °C 30.4in /  1028.5hPa Calm     92% 0in /  0.0mm 0 W/m2
06:34 46.9 °F /  8.3 °C 44.8 °F /  7.1 °C 30.4in /  1028.5hPa Calm     92% 0in /  0.0mm 0 W/m2
06:39 46.9 °F /  8.3 °C 44.8 °F /  7.1 °C 30.4in /  1028.5hPa Calm     92% 0in /  0.0mm 0 W/m2
06:44 46.9 °F /  8.3 °C 44.8 °F /  7.1 °C 30.4in /  1028.5hPa Calm   3mph /  4.8km/h 92% 0in /  0.0mm 0 W/m2
06:49 46.9 °F /  8.3 °C 44.8 °F /  7.1 °C 30.4in /  1028.5hPa Calm   1mph /  1.6km/h 92% 0in /  0.0mm 0 W/m2
06:54 47.1 °F /  8.4 °C 45 °F /  7.2 °C 30.4in /  1028.5hPa Calm     92% 0in /  0.0mm 0 W/m2
06:59 47.1 °F /  8.4 °C 44.6 °F /  7 °C 30.4in /  1028.1hPa Calm   1mph /  1.6km/h 91% 0in /  0.0mm 0 W/m2
07:04 46.9 °F /  8.3 °C 44.4 °F /  6.9 °C 30.4in /  1028.1hPa Calm     91% 0in /  0.0mm 0 W/m2
07:09 46.9 °F /  8.3 °C 44.4 °F /  6.9 °C 30.4in /  1028.5hPa Calm     91% 0in /  0.0mm 0 W/m2
07:14 46.9 °F /  8.3 °C 44.4 °F /  6.9 °C 30.4in /  1028.5hPa Calm     91% 0in /  0.0mm 0 W/m2
07:19 46.9 °F /  8.3 °C 44.4 °F /  6.9 °C 30.4in /  1028.1hPa Calm     91% 0in /  0.0mm 0 W/m2
07:24 46.9 °F /  8.3 °C 44.4 °F /  6.9 °C 30.4in /  1028.1hPa Calm     91% 0in /  0.0mm 0 W/m2
07:29 46.9 °F /  8.3 °C 44.4 °F /  6.9 °C 30.4in /  1028.1hPa Calm     91% 0in /  0.0mm 5 W/m2
07:34 46.8 °F /  8.2 °C 44.2 °F /  6.8 °C 30.4in /  1028.5hPa Calm     91% 0in /  0.0mm 7 W/m2
07:39 46.8 °F /  8.2 °C 44.2 °F /  6.8 °C 30.4in /  1028.5hPa Calm     91% 0in /  0.0mm 11 W/m2
07:44 46.8 °F /  8.2 °C 44.2 °F /  6.8 °C 30.4in /  1028.1hPa Calm     91% 0in /  0.0mm 16 W/m2
07:49 46.8 °F /  8.2 °C 44.6 °F /  7 °C 30.4in /  1028.5hPa Calm   1mph /  1.6km/h 92% 0in /  0.0mm 19 W/m2
07:54 46.9 °F /  8.3 °C 44.8 °F /  7.1 °C 30.4in /  1028.1hPa SSW 0.9mph /  1.4km/h 1mph /  1.6km/h 92% 0in /  0.0mm 23 W/m2
07:59 46.9 °F /  8.3 °C 44.8 °F /  7.1 °C 30.4in /  1028.5hPa Calm     92% 0in /  0.0mm 26 W/m2
08:16 47.5 °F /  8.6 °C 45 °F /  7.2 °C 30.4in /  1028.1hPa Calm   2mph /  3.2km/h 91% 0in /  0.0mm 39 W/m2
08:21 47.7 °F /  8.7 °C 45.1 °F /  7.3 °C 30.4in /  1028.1hPa Calm     91% 0in /  0.0mm 44 W/m2
08:26 47.7 °F /  8.7 °C 45 °F /  7.2 °C 30.4in /  1028.1hPa Calm   2mph /  3.2km/h 90% 0in /  0.0mm 47 W/m2
08:31 47.7 °F /  8.7 °C 45 °F /  7.2 °C 30.4in /  1028.1hPa Calm   1mph /  1.6km/h 90% 0in /  0.0mm 53 W/m2
08:36 47.8 °F /  8.8 °C 45 °F /  7.2 °C 30.4in /  1028.1hPa Calm     90% 0in /  0.0mm 53 W/m2
08:41 48 °F /  8.9 °C 45.1 °F /  7.3 °C 30.4in /  1028.5hPa Calm     90% 0in /  0.0mm 56 W/m2
08:46 48 °F /  8.9 °C 45.1 °F /  7.3 °C 30.4in /  1028.1hPa Calm     90% 0in /  0.0mm 60 W/m2
08:51 48.4 °F /  9.1 °C 45.3 °F /  7.4 °C 30.4in /  1028.1hPa Calm     89% 0in /  0.0mm 63 W/m2
08:56 48.6 °F /  9.2 °C 45.5 °F /  7.5 °C 30.4in /  1028.1hPa NW 0.9mph /  1.4km/h 2mph /  3.2km/h 89% 0in /  0.0mm 69 W/m2
09:01 48.7 °F /  9.3 °C 45.3 °F /  7.4 °C 30.4in /  1028.1hPa Calm     88% 0in /  0.0mm 69 W/m2
09:06 48.9 °F /  9.4 °C 45.5 °F /  7.5 °C 30.4in /  1028.1hPa Calm   2mph /  3.2km/h 88% 0in /  0.0mm 105 W/m2
09:11 49.1 °F /  9.5 °C 45.7 °F /  7.6 °C 30.4in /  1028.5hPa Calm     88% 0in /  0.0mm 176 W/m2
09:27 50.9 °F /  10.5 °C 46.9 °F /  8.3 °C 30.4in /  1028.5hPa Calm   3mph /  4.8km/h 86% 0in /  0.0mm 216 W/m2
09:32 51.4 °F /  10.8 °C 46.8 °F /  8.2 °C 30.4in /  1028.5hPa East 2.9mph /  4.7km/h 3mph /  4.8km/h 84% 0in /  0.0mm 243 W/m2
09:37 52 °F /  11.1 °C 46.9 °F /  8.3 °C 30.4in /  1028.8hPa NE 2mph /  3.2km/h 3mph /  4.8km/h 83% 0in /  0.0mm 257 W/m2
09:42 52.2 °F /  11.2 °C 47.1 °F /  8.4 °C 30.4in /  1028.5hPa ESE 2mph /  3.2km/h 4mph /  6.4km/h 83% 0in /  0.0mm 239 W/m2
09:47 52.5 °F /  11.4 °C 47.1 °F /  8.4 °C 30.4in /  1028.8hPa Calm   1mph /  1.6km/h 82% 0in /  0.0mm 251 W/m2
09:52 52.7 °F /  11.5 °C 47.1 °F /  8.4 °C 30.4in /  1028.8hPa Calm     81% 0in /  0.0mm 276 W/m2
09:57 52.7 °F /  11.5 °C 47.1 °F /  8.4 °C 30.4in /  1028.5hPa Calm   2mph /  3.2km/h 81% 0in /  0.0mm 309 W/m2
10:02 52.9 °F /  11.6 °C 47.3 °F /  8.5 °C 30.4in /  1028.8hPa Calm   1mph /  1.6km/h 81% 0in /  0.0mm 341 W/m2
10:07 53.2 °F /  11.8 °C 47.5 °F /  8.6 °C 30.4in /  1028.8hPa NNW 0.9mph /  1.4km/h 2mph /  3.2km/h 81% 0in /  0.0mm 362 W/m2
10:12 54 °F /  12.2 °C 48.2 °F /  9 °C 30.4in /  1028.8hPa Calm   2mph /  3.2km/h 81% 0in /  0.0mm 371 W/m2
10:17 54.3 °F /  12.4 °C 48.2 °F /  9 °C 30.4in /  1028.8hPa Calm   2mph /  3.2km/h 80% 0in /  0.0mm 385 W/m2
10:23 55 °F /  12.8 °C 48.4 °F /  9.1 °C 30.4in /  1028.8hPa East 0.9mph /  1.4km/h 3mph /  4.8km/h 78% 0in /  0.0mm 394 W/m2
10:28 55.6 °F /  13.1 °C 48.6 °F /  9.2 °C 30.4in /  1029.1hPa ENE 0.9mph /  1.4km/h 3mph /  4.8km/h 77% 0in /  0.0mm 401 W/m2
10:33 56.1 °F /  13.4 °C 48.7 °F /  9.3 °C 30.4in /  1029.1hPa Calm   3mph /  4.8km/h 76% 0in /  0.0mm 424 W/m2
10:38 56.7 °F /  13.7 °C 48.7 °F /  9.3 °C 30.4in /  1029.1hPa NNE 0.9mph /  1.4km/h 2mph /  3.2km/h 75% 0in /  0.0mm 441 W/m2
10:43 57 °F /  13.9 °C 48.4 °F /  9.1 °C 30.4in /  1029.1hPa NE 2.9mph /  4.7km/h 4mph /  6.4km/h 73% 0in /  0.0mm 450 W/m2
10:48 57.2 °F /  14 °C 48.9 °F /  9.4 °C 30.4in /  1029.1hPa ENE 2mph /  3.2km/h 2mph /  3.2km/h 74% 0in /  0.0mm 468 W/m2
11:06 58.6 °F /  14.8 °C 49.3 °F /  9.6 °C 30.4in /  1029.1hPa ENE 0.9mph /  1.4km/h 2mph /  3.2km/h 71% 0in /  0.0mm 522 W/m2
11:11 59.2 °F /  15.1 °C 49.1 °F /  9.5 °C 30.4in /  1028.8hPa ENE 0.9mph /  1.4km/h 2mph /  3.2km/h 69% 0in /  0.0mm 510 W/m2
11:16 59.7 °F /  15.4 °C 50 °F /  10 °C 30.4in /  1028.8hPa Calm   3mph /  4.8km/h 70% 0in /  0.0mm 517 W/m2
11:21 60.3 °F /  15.7 °C 50 °F /  10 °C 30.4in /  1028.8hPa ENE 2mph /  3.2km/h 2mph /  3.2km/h 69% 0in /  0.0mm 531 W/m2
11:26 60.6 °F /  15.9 °C 49.6 °F /  9.8 °C 30.4in /  1028.8hPa Calm   3mph /  4.8km/h 67% 0in /  0.0mm 547 W/m2
11:31 61 °F /  16.1 °C 49.5 °F /  9.7 °C 30.4in /  1028.8hPa Calm   3mph /  4.8km/h 66% 0in /  0.0mm 536 W/m2
11:36 61.3 °F /  16.3 °C 49.8 °F /  9.9 °C 30.4in /  1028.8hPa Calm   2mph /  3.2km/h 66% 0in /  0.0mm 522 W/m2
11:41 61.5 °F /  16.4 °C 50 °F /  10 °C 30.4in /  1028.8hPa East 2mph /  3.2km/h 4mph /  6.4km/h 66% 0in /  0.0mm 512 W/m2
11:46 61.7 °F /  16.5 °C 50.2 °F /  10.1 °C 30.4in /  1028.5hPa SE 2.9mph /  4.7km/h 7mph /  11.3km/h 66% 0in /  0.0mm 538 W/m2
11:51 62.1 °F /  16.7 °C 50.5 °F /  10.3 °C 30.4in /  1028.5hPa SE 0.9mph /  1.4km/h 4mph /  6.4km/h 66% 0in /  0.0mm 566 W/m2
11:56 62.6 °F /  17 °C 50.7 °F /  10.4 °C 30.4in /  1028.5hPa ENE 2mph /  3.2km/h 6mph /  9.7km/h 65% 0in /  0.0mm 577 W/m2
12:01 63.3 °F /  17.4 °C 48.7 °F /  9.3 °C 30.4in /  1028.5hPa SE 2.9mph /  4.7km/h 10mph /  16.1km/h 59% 0in /  0.0mm 608 W/m2
12:06 63.5 °F /  17.5 °C 48.9 °F /  9.4 °C 30.4in /  1028.5hPa East 0.9mph /  1.4km/h 6mph /  9.7km/h 59% 0in /  0.0mm 628 W/m2
12:25 64.2 °F /  17.9 °C 48.7 °F /  9.3 °C 30.4in /  1028.5hPa ENE 2.9mph /  4.7km/h 7mph /  11.3km/h 57% 0in /  0.0mm 744 W/m2
12:30 64.8 °F /  18.2 °C 50.2 °F /  10.1 °C 30.4in /  1028.5hPa East 2mph /  3.2km/h 3mph /  4.8km/h 59% 0in /  0.0mm 610 W/m2
12:35 64.9 °F /  18.3 °C 48.9 °F /  9.4 °C 30.4in /  1028.1hPa NE 2mph /  3.2km/h 3mph /  4.8km/h 56% 0in /  0.0mm 322 W/m2
12:40 64.9 °F /  18.3 °C 48.4 °F /  9.1 °C 30.4in /  1028.1hPa East 0.9mph /  1.4km/h 3mph /  4.8km/h 55% 0in /  0.0mm 717 W/m2
12:45 65.1 °F /  18.4 °C 49.5 °F /  9.7 °C 30.4in /  1028.1hPa SW 0.9mph /  1.4km/h 6mph /  9.7km/h 57% 0in /  0.0mm 724 W/m2
12:50 65.5 °F /  18.6 °C 50.4 °F /  10.2 °C 30.4in /  1028.1hPa Calm   3mph /  4.8km/h 58% 0in /  0.0mm 587 W/m2
12:55 65.8 °F /  18.8 °C 50.2 °F /  10.1 °C 30.4in /  1027.8hPa NE 2.9mph /  4.7km/h 3mph /  4.8km/h 57% 0in /  0.0mm 557 W/m2
13:01 66 °F /  18.9 °C 49.8 °F /  9.9 °C 30.4in /  1027.8hPa SE 2mph /  3.2km/h 5mph /  8km/h 56% 0in /  0.0mm 708 W/m2
13:06 66 °F /  18.9 °C 49.8 °F /  9.9 °C 30.4in /  1027.8hPa North 0.9mph /  1.4km/h 4mph /  6.4km/h 56% 0in /  0.0mm 621 W/m2
13:11 66.4 °F /  19.1 °C 50.2 °F /  10.1 °C 30.4in /  1027.8hPa SE 0.9mph /  1.4km/h 3mph /  4.8km/h 56% 0in /  0.0mm 601 W/m2
13:16 66.6 °F /  19.2 °C 49.8 °F /  9.9 °C 30.4in /  1027.8hPa East 2mph /  3.2km/h 4mph /  6.4km/h 55% 0in /  0.0mm 434 W/m2
13:21 66.4 °F /  19.1 °C 50.2 °F /  10.1 °C 30.3in /  1027.4hPa ESE 0.9mph /  1.4km/h 4mph /  6.4km/h 56% 0in /  0.0mm 355 W/m2
13:26 66.2 °F /  19 °C 50 °F /  10 °C 30.3in /  1027.4hPa NE 2.9mph /  4.7km/h 3mph /  4.8km/h 56% 0in /  0.0mm 443 W/m2
13:31 66.2 °F /  19 °C 49.6 °F /  9.8 °C 30.3in /  1027.4hPa Calm   6mph /  9.7km/h 55% 0in /  0.0mm 489 W/m2
13:36 66.4 °F /  19.1 °C 50.2 °F /  10.1 °C 30.3in /  1027.4hPa East 2mph /  3.2km/h 3mph /  4.8km/h 56% 0in /  0.0mm 506 W/m2
13:41 66.4 °F /  19.1 °C 51.1 °F /  10.6 °C 30.3in /  1027.4hPa ENE 2mph /  3.2km/h 3mph /  4.8km/h 58% 0in /  0.0mm 524 W/m2
13:46 66.6 °F /  19.2 °C 50.4 °F /  10.2 °C 30.3in /  1027.4hPa ESE 2mph /  3.2km/h 3mph /  4.8km/h 56% 0in /  0.0mm 369 W/m2
13:51 66.7 °F /  19.3 °C 51.1 °F /  10.6 °C 30.3in /  1027.4hPa Calm   2mph /  3.2km/h 57% 0in /  0.0mm 346 W/m2
13:56 66.7 °F /  19.3 °C 51.4 °F /  10.8 °C 30.3in /  1027.4hPa Calm   1mph /  1.6km/h 58% 0in /  0.0mm 278 W/m2
14:01 66.6 °F /  19.2 °C 49.5 °F /  9.7 °C 30.3in /  1027.4hPa NNW 2mph /  3.2km/h 3mph /  4.8km/h 54% 0in /  0.0mm 281 W/m2
14:06 66.2 °F /  19 °C 49.1 °F /  9.5 °C 30.3in /  1027.4hPa ENE 2mph /  3.2km/h 6mph /  9.7km/h 54% 0in /  0.0mm 290 W/m2
14:11 66 °F /  18.9 °C 49.5 °F /  9.7 °C 30.3in /  1027.1hPa ESE 2mph /  3.2km/h 6mph /  9.7km/h 55% 0in /  0.0mm 353 W/m2
14:16 66 °F /  18.9 °C 49.5 °F /  9.7 °C 30.3in /  1027.1hPa SE 0.9mph /  1.4km/h 9mph /  14.5km/h 55% 0in /  0.0mm 357 W/m2
14:21 66 °F /  18.9 °C 49.5 °F /  9.7 °C 30.3in /  1027.1hPa East 2.9mph /  4.7km/h 3mph /  4.8km/h 55% 0in /  0.0mm 439 W/m2
14:26 66.4 °F /  19.1 °C 49.6 °F /  9.8 °C 30.3in /  1027.1hPa NNE 0.9mph /  1.4km/h 3mph /  4.8km/h 55% 0in /  0.0mm 497 W/m2
14:31 66.6 °F /  19.2 °C 50.4 °F /  10.2 °C 30.3in /  1026.8hPa Calm   3mph /  4.8km/h 56% 0in /  0.0mm 570 W/m2
14:36 66.9 °F /  19.4 °C 49.8 °F /  9.9 °C 30.3in /  1026.8hPa East 2.9mph /  4.7km/h 6mph /  9.7km/h 54% 0in /  0.0mm 536 W/m2
14:41 66.9 °F /  19.4 °C 49.8 °F /  9.9 °C 30.3in /  1026.8hPa NNE 2mph /  3.2km/h 4mph /  6.4km/h 54% 0in /  0.0mm 434 W/m2
14:46 67.1 °F /  19.5 °C 49.8 °F /  9.9 °C 30.3in /  1026.8hPa East 2mph /  3.2km/h 3mph /  4.8km/h 54% 0in /  0.0mm 448 W/m2
14:51 67.1 °F /  19.5 °C 49.8 °F /  9.9 °C 30.3in /  1026.8hPa ESE 2.9mph /  4.7km/h 5mph /  8km/h 54% 0in /  0.0mm 417 W/m2
14:56 66.9 °F /  19.4 °C 49.8 °F /  9.9 °C 30.3in /  1026.4hPa SE 2mph /  3.2km/h 6mph /  9.7km/h 54% 0in /  0.0mm 392 W/m2
15:01 66.9 °F /  19.4 °C 50.2 °F /  10.1 °C 30.3in /  1026.4hPa ENE 0.9mph /  1.4km/h 2mph /  3.2km/h 55% 0in /  0.0mm 418 W/m2
15:06 66.9 °F /  19.4 °C 49.8 °F /  9.9 °C 30.3in /  1026.4hPa North 2mph /  3.2km/h 6mph /  9.7km/h 54% 0in /  0.0mm 424 W/m2
15:11 66.9 °F /  19.4 °C 50.7 °F /  10.4 °C 30.3in /  1026.4hPa Calm   3mph /  4.8km/h 56% 0in /  0.0mm 418 W/m2
15:16 67.1 °F /  19.5 °C 50.9 °F /  10.5 °C 30.3in /  1026.4hPa ESE 0.9mph /  1.4km/h 4mph /  6.4km/h 56% 0in /  0.0mm 373 W/m2
15:21 67.3 °F /  19.6 °C 50 °F /  10 °C 30.3in /  1026.4hPa ENE 2mph /  3.2km/h 4mph /  6.4km/h 54% 0in /  0.0mm 276 W/m2
15:26 67.5 °F /  19.7 °C 50.7 °F /  10.4 °C 30.3in /  1026.4hPa ESE 0.9mph /  1.4km/h 5mph /  8km/h 55% 0in /  0.0mm 285 W/m2
15:31 67.5 °F /  19.7 °C 50.7 °F /  10.4 °C 30.3in /  1026.1hPa NE 0.9mph /  1.4km/h 4mph /  6.4km/h 55% 0in /  0.0mm 281 W/m2
15:52 68 °F /  20 °C 50.7 °F /  10.4 °C 30.3in /  1026.1hPa ENE 4mph /  6.4km/h 6mph /  9.7km/h 54% 0in /  0.0mm 436 W/m2
15:57 68.2 °F /  20.1 °C 50.4 °F /  10.2 °C 30.3in /  1026.1hPa NNE 9mph /  14.5km/h 9mph /  14.5km/h 53% 0in /  0.0mm 360 W/m2
16:02 68.2 °F /  20.1 °C 50.4 °F /  10.2 °C 30.3in /  1025.7hPa East 0.9mph /  1.4km/h 2mph /  3.2km/h 53% 0in /  0.0mm 271 W/m2
16:07 68 °F /  20 °C 50.7 °F /  10.4 °C 30.3in /  1025.7hPa East 4mph /  6.4km/h 5mph /  8km/h 54% 0in /  0.0mm 290 W/m2
16:12 68 °F /  20 °C 50.7 °F /  10.4 °C 30.3in /  1025.7hPa Calm   3mph /  4.8km/h 54% 0in /  0.0mm 371 W/m2
16:17 68.2 °F /  20.1 °C 50.4 °F /  10.2 °C 30.3in /  1025.7hPa ENE 0.9mph /  1.4km/h 6mph /  9.7km/h 53% 0in /  0.0mm 308 W/m2
16:22 67.8 °F /  19.9 °C 50.5 °F /  10.3 °C 30.3in /  1025.7hPa SE 0.9mph /  1.4km/h 3mph /  4.8km/h 54% 0in /  0.0mm 343 W/m2
16:27 67.8 °F /  19.9 °C 50.5 °F /  10.3 °C 30.3in /  1025.7hPa NE 0.9mph /  1.4km/h 2mph /  3.2km/h 54% 0in /  0.0mm 283 W/m2
16:32 67.6 °F /  19.8 °C 50.4 °F /  10.2 °C 30.3in /  1025.7hPa North 0.9mph /  1.4km/h 5mph /  8km/h 54% 0in /  0.0mm 250 W/m2
16:37 67.5 °F /  19.7 °C 50.2 °F /  10.1 °C 30.3in /  1025.7hPa NE 2mph /  3.2km/h 6mph /  9.7km/h 54% 0in /  0.0mm 253 W/m2
16:42 67.3 °F /  19.6 °C 50 °F /  10 °C 30.3in /  1025.7hPa East 4mph /  6.4km/h 5mph /  8km/h 54% 0in /  0.0mm 221 W/m2
16:47 67.3 °F /  19.6 °C 50.5 °F /  10.3 °C 30.3in /  1025.7hPa ENE 0.9mph /  1.4km/h 8mph /  12.9km/h 55% 0in /  0.0mm 287 W/m2
16:52 67.1 °F /  19.5 °C 50.9 °F /  10.5 °C 30.3in /  1025.4hPa ENE 4mph /  6.4km/h 5mph /  8km/h 56% 0in /  0.0mm 255 W/m2
16:57 67.1 °F /  19.5 °C 50.9 °F /  10.5 °C 30.3in /  1025.4hPa NE 2mph /  3.2km/h 8mph /  12.9km/h 56% 0in /  0.0mm 260 W/m2
17:02 67.3 °F /  19.6 °C 51.1 °F /  10.6 °C 30.3in /  1025.4hPa SE 2mph /  3.2km/h 8mph /  12.9km/h 56% 0in /  0.0mm 234 W/m2
17:07 67.1 °F /  19.5 °C 50.9 °F /  10.5 °C 30.3in /  1025.4hPa ENE 2mph /  3.2km/h 7mph /  11.3km/h 56% 0in /  0.0mm 199 W/m2
17:12 67.3 °F /  19.6 °C 51.4 °F /  10.8 °C 30.3in /  1025.4hPa ENE 0.9mph /  1.4km/h 2mph /  3.2km/h 57% 0in /  0.0mm 204 W/m2
17:29 67.3 °F /  19.6 °C 51.4 °F /  10.8 °C 30.3in /  1025.4hPa SE 2mph /  3.2km/h 5mph /  8km/h 57% 0in /  0.0mm 302 W/m2
17:34 67.5 °F /  19.7 °C 51.3 °F /  10.7 °C 30.3in /  1025.4hPa SE 0.9mph /  1.4km/h 5mph /  8km/h 56% 0in /  0.0mm 295 W/m2
17:39 67.6 °F /  19.8 °C 50.9 °F /  10.5 °C 30.3in /  1025.4hPa ENE 2mph /  3.2km/h 4mph /  6.4km/h 55% 0in /  0.0mm 276 W/m2
17:44 67.8 °F /  19.9 °C 51.1 °F /  10.6 °C 30.3in /  1025.1hPa NE 2.9mph /  4.7km/h 3mph /  4.8km/h 55% 0in /  0.0mm 257 W/m2
17:49 67.8 °F /  19.9 °C 51.6 °F /  10.9 °C 30.3in /  1025.1hPa NE 0.9mph /  1.4km/h 4mph /  6.4km/h 56% 0in /  0.0mm 239 W/m2
17:54 67.8 °F /  19.9 °C 51.1 °F /  10.6 °C 30.3in /  1025.1hPa ESE 4mph /  6.4km/h 8mph /  12.9km/h 55% 0in /  0.0mm 209 W/m2
17:59 67.5 °F /  19.7 °C 51.3 °F /  10.7 °C 30.3in /  1025.1hPa ESE 0.9mph /  1.4km/h 4mph /  6.4km/h 56% 0in /  0.0mm 199 W/m2
18:04 67.3 °F /  19.6 °C 51.4 °F /  10.8 °C 30.3in /  1025.1hPa East 2.9mph /  4.7km/h 8mph /  12.9km/h 57% 0in /  0.0mm 128 W/m2
18:09 67.3 °F /  19.6 °C 51.4 °F /  10.8 °C 30.3in /  1025.1hPa NE 2mph /  3.2km/h 4mph /  6.4km/h 57% 0in /  0.0mm 192 W/m2
18:14 67.3 °F /  19.6 °C 51.4 °F /  10.8 °C 30.3in /  1025.1hPa Calm   2mph /  3.2km/h 57% 0in /  0.0mm 163 W/m2
18:19 67.3 °F /  19.6 °C 52 °F /  11.1 °C 30.3in /  1025.1hPa ENE 0.9mph /  1.4km/h 5mph /  8km/h 58% 0in /  0.0mm 153 W/m2
18:24 66.9 °F /  19.4 °C 51.6 °F /  10.9 °C 30.3in /  1025.1hPa Calm   3mph /  4.8km/h 58% 0in /  0.0mm 109 W/m2
18:29 66.7 °F /  19.3 °C 51.4 °F /  10.8 °C 30.3in /  1025.1hPa ESE 0.9mph /  1.4km/h 3mph /  4.8km/h 58% 0in /  0.0mm 97 W/m2
18:34 66.4 °F /  19.1 °C 52.2 °F /  11.2 °C 30.3in /  1025.1hPa ESE 0.9mph /  1.4km/h 2mph /  3.2km/h 60% 0in /  0.0mm 77 W/m2
18:39 65.8 °F /  18.8 °C 52 °F /  11.1 °C 30.3in /  1025.1hPa Calm   2mph /  3.2km/h 61% 0in /  0.0mm 65 W/m2
18:44 65.7 °F /  18.7 °C 53.2 °F /  11.8 °C 30.3in /  1025.1hPa Calm     64% 0in /  0.0mm 56 W/m2
18:49 65.1 °F /  18.4 °C 53.4 °F /  11.9 °C 30.3in /  1025.1hPa Calm     66% 0in /  0.0mm 47 W/m2
18:54 64.8 °F /  18.2 °C 53.6 °F /  12 °C 30.3in /  1025.1hPa Calm     67% 0in /  0.0mm 40 W/m2
18:59 64.2 °F /  17.9 °C 53.4 °F /  11.9 °C 30.3in /  1024.7hPa SE 0.9mph /  1.4km/h 1mph /  1.6km/h 68% 0in /  0.0mm 35 W/m2
19:04 63.7 °F /  17.6 °C 52.9 °F /  11.6 °C 30.3in /  1025.1hPa Calm   1mph /  1.6km/h 68% 0in /  0.0mm 28 W/m2
19:09 63 °F /  17.2 °C 52.7 °F /  11.5 °C 30.3in /  1025.1hPa Calm     69% 0in /  0.0mm 23 W/m2
19:14 62.4 °F /  16.9 °C 52.5 °F /  11.4 °C 30.3in /  1024.7hPa Calm   1mph /  1.6km/h 70% 0in /  0.0mm 18 W/m2
19:19 62.1 °F /  16.7 °C 52.5 °F /  11.4 °C 30.3in /  1024.7hPa Calm     71% 0in /  0.0mm 12 W/m2
19:24 61.7 °F /  16.5 °C 52.2 °F /  11.2 °C 30.3in /  1024.7hPa Calm     71% 0in /  0.0mm 7 W/m2
19:29 61.3 °F /  16.3 °C 51.8 °F /  11 °C 30.3in /  1024.7hPa Calm     71% 0in /  0.0mm 0 W/m2
19:34 61 °F /  16.1 °C 52 °F /  11.1 °C 30.3in /  1024.7hPa SE 2mph /  3.2km/h 2mph /  3.2km/h 72% 0in /  0.0mm 0 W/m2
19:39 60.4 °F /  15.8 °C 51.8 °F /  11 °C 30.3in /  1024.7hPa Calm   1mph /  1.6km/h 73% 0in /  0.0mm 0 W/m2
19:44 60.1 °F /  15.6 °C 51.8 °F /  11 °C 30.3in /  1024.7hPa SE 0.9mph /  1.4km/h 2mph /  3.2km/h 74% 0in /  0.0mm 0 W/m2
Juneau County Weather
Compliments of Weather Underground - 2 mb